createdAt,value
2019-03-19T00:00:42.876Z,54.72
2019-03-19T00:03:09.187Z,53.94
2019-03-19T00:05:35.493Z,53.04
2019-03-19T00:08:01.812Z,52.70
2019-03-19T00:10:28.126Z,52.58
2019-03-19T00:12:54.425Z,52.82
2019-03-19T00:15:20.733Z,52.57
2019-03-19T00:17:47.037Z,52.30
2019-03-19T00:20:13.378Z,52.20
2019-03-19T00:22:39.683Z,51.88
2019-03-19T00:25:05.992Z,52.00
2019-03-19T00:27:32.300Z,52.17
2019-03-19T00:29:58.604Z,52.10
2019-03-19T00:32:24.930Z,52.25
2019-03-19T00:34:51.281Z,52.50
2019-03-19T00:37:17.589Z,52.52
2019-03-19T00:39:43.898Z,52.67
2019-03-19T00:42:10.206Z,53.22
2019-03-19T00:44:36.509Z,53.52
2019-03-19T00:47:02.838Z,53.96
2019-03-19T00:49:29.156Z,54.50
2019-03-19T00:51:55.471Z,54.72
2019-03-19T00:54:21.793Z,55.97
2019-03-19T00:56:48.093Z,55.48
2019-03-19T00:59:14.412Z,55.50
2019-03-19T01:01:40.722Z,56.30
2019-03-19T01:04:07.031Z,56.17
2019-03-19T01:06:33.342Z,56.50
2019-03-19T01:08:59.652Z,57.12
2019-03-19T01:11:25.966Z,57.39
2019-03-19T01:13:52.316Z,57.48
2019-03-19T01:16:18.609Z,57.67
2019-03-19T01:18:44.915Z,58.13
2019-03-19T01:21:11.231Z,58.63
2019-03-19T01:23:37.541Z,58.07
2019-03-19T01:26:03.854Z,58.61
2019-03-19T01:28:30.158Z,58.57
2019-03-19T01:30:56.472Z,59.18
2019-03-19T01:33:22.774Z,58.84
2019-03-19T01:35:49.081Z,58.79
2019-03-19T01:38:15.394Z,59.08
2019-03-19T01:40:41.765Z,59.12
2019-03-19T01:43:08.070Z,59.00
2019-03-19T01:45:34.379Z,59.52
2019-03-19T01:48:00.693Z,59.85
2019-03-19T01:50:26.997Z,59.63
2019-03-19T01:52:53.308Z,60.09
2019-03-19T01:55:19.609Z,59.94
2019-03-19T01:57:45.922Z,60.58
2019-03-19T02:00:12.232Z,60.17
2019-03-19T02:02:38.542Z,60.41
2019-03-19T02:05:04.849Z,60.37
2019-03-19T02:07:31.160Z,60.20
2019-03-19T02:09:57.471Z,60.46
2019-03-19T02:12:23.779Z,60.25
2019-03-19T02:14:50.088Z,60.38
2019-03-19T02:17:16.394Z,60.28
2019-03-19T02:19:42.709Z,60.04
2019-03-19T02:22:09.020Z,59.76
2019-03-19T02:24:35.354Z,59.80
2019-03-19T02:27:01.667Z,59.24
2019-03-19T02:29:27.989Z,59.39
2019-03-19T02:31:54.298Z,59.65
2019-03-19T02:34:20.608Z,59.64
2019-03-19T02:36:46.921Z,59.81
2019-03-19T02:39:13.219Z,60.15
2019-03-19T02:41:39.522Z,60.43
2019-03-19T02:44:05.828Z,60.72
2019-03-19T02:46:32.148Z,61.10
2019-03-19T02:48:58.456Z,61.13
2019-03-19T02:51:24.764Z,61.33
2019-03-19T02:53:51.114Z,61.58
2019-03-19T02:56:31.811Z,61.36
2019-03-19T02:58:43.784Z,61.47
2019-03-19T03:01:10.066Z,61.85
2019-03-19T03:03:36.381Z,62.44
2019-03-19T03:06:02.692Z,62.12
2019-03-19T03:08:29.001Z,62.42
2019-03-19T03:10:55.306Z,62.42
2019-03-19T03:13:21.622Z,62.26
2019-03-19T03:15:47.937Z,62.43
2019-03-19T03:18:14.271Z,62.43
2019-03-19T03:20:40.571Z,63.02
2019-03-19T03:23:06.881Z,63.18
2019-03-19T03:25:33.193Z,62.65
2019-03-19T03:27:59.506Z,62.62
2019-03-19T03:30:25.818Z,62.87
2019-03-19T03:32:52.146Z,63.21
2019-03-19T03:35:18.478Z,63.26
2019-03-19T03:37:44.749Z,63.63
2019-03-19T03:40:11.052Z,63.58
2019-03-19T03:42:37.366Z,64.00
2019-03-19T03:45:03.682Z,63.72
2019-03-19T03:47:29.986Z,64.03
2019-03-19T03:49:56.297Z,64.29
2019-03-19T03:52:22.612Z,64.06
2019-03-19T03:54:48.915Z,64.63
2019-03-19T03:57:15.226Z,64.42
2019-03-19T03:59:41.539Z,64.44
2019-03-19T04:02:07.850Z,64.51
2019-03-19T04:04:34.179Z,64.21
2019-03-19T04:07:00.485Z,64.44
2019-03-19T04:09:26.801Z,64.48
2019-03-19T04:11:53.117Z,64.31
2019-03-19T04:14:19.427Z,64.33
2019-03-19T04:16:45.775Z,64.05
2019-03-19T04:19:12.079Z,64.56
2019-03-19T04:21:38.387Z,64.20
2019-03-19T04:24:04.697Z,64.87
2019-03-19T04:26:31.028Z,64.98
2019-03-19T04:28:57.342Z,64.78
2019-03-19T04:31:23.651Z,64.68
2019-03-19T04:33:49.953Z,65.31
2019-03-19T04:36:16.259Z,65.13
2019-03-19T04:38:42.582Z,64.96
2019-03-19T04:41:08.885Z,65.23
2019-03-19T04:43:35.194Z,65.38
2019-03-19T04:46:01.499Z,64.89
2019-03-19T04:48:27.819Z,64.44
2019-03-19T04:50:54.123Z,64.67
2019-03-19T04:53:20.440Z,63.96
2019-03-19T04:55:46.750Z,63.78
2019-03-19T04:58:13.060Z,63.39
2019-03-19T05:00:39.394Z,63.70
2019-03-19T05:03:05.701Z,63.00
2019-03-19T05:05:32.004Z,63.24
2019-03-19T05:07:58.312Z,62.38
2019-03-19T05:10:24.622Z,62.25
2019-03-19T05:12:50.950Z,61.81
2019-03-19T05:15:17.260Z,61.74
2019-03-19T05:17:43.568Z,61.98
2019-03-19T05:20:09.884Z,61.50
2019-03-19T05:22:36.196Z,61.25
2019-03-19T05:25:02.518Z,60.99
2019-03-19T05:27:37.008Z,60.94
2019-03-19T05:29:55.121Z,60.95
2019-03-19T05:32:21.430Z,60.67
2019-03-19T05:34:47.760Z,60.08
2019-03-19T05:37:14.066Z,59.59
2019-03-19T05:39:40.370Z,59.51
2019-03-19T05:42:06.720Z,59.04
2019-03-19T05:44:32.990Z,58.62
2019-03-19T05:46:59.334Z,58.40
2019-03-19T05:49:25.641Z,58.69
2019-03-19T05:51:51.957Z,58.29
2019-03-19T05:54:18.275Z,58.40
2019-03-19T05:56:44.602Z,57.69
2019-03-19T05:59:10.940Z,57.50
2019-03-19T06:01:37.245Z,56.76
2019-03-19T06:04:03.588Z,57.08
2019-03-19T06:06:29.893Z,56.21
2019-03-19T06:08:56.200Z,55.20
2019-03-19T06:11:22.510Z,55.71
2019-03-19T06:13:48.819Z,55.90
2019-03-19T06:16:15.146Z,55.78
2019-03-19T06:18:41.482Z,55.35
2019-03-19T06:21:07.792Z,55.75
2019-03-19T06:23:34.106Z,55.84
2019-03-19T06:26:00.413Z,55.71
2019-03-19T06:28:26.728Z,56.16
2019-03-19T06:30:53.036Z,55.88
2019-03-19T06:33:19.341Z,55.63
2019-03-19T06:35:45.656Z,55.11
2019-03-19T06:38:11.965Z,55.12
2019-03-19T06:40:38.277Z,54.71
2019-03-19T06:43:04.589Z,53.91
2019-03-19T06:45:30.921Z,53.74
2019-03-19T06:47:57.227Z,53.02
2019-03-19T06:50:23.533Z,52.44
2019-03-19T06:52:49.845Z,51.15
2019-03-19T06:55:16.143Z,52.03
2019-03-19T06:57:42.464Z,50.32
2019-03-19T07:00:08.755Z,50.46
2019-03-19T07:02:35.069Z,50.17
2019-03-19T07:05:01.382Z,49.34
2019-03-19T07:07:27.744Z,49.34
2019-03-19T07:09:54.054Z,49.62
2019-03-19T07:12:20.394Z,49.55
2019-03-19T07:14:46.716Z,49.53
2019-03-19T07:17:13.041Z,48.82
2019-03-19T07:19:39.396Z,48.88
2019-03-19T07:22:05.702Z,49.69
2019-03-19T07:24:32.011Z,49.21
2019-03-19T07:26:58.352Z,49.13
2019-03-19T07:29:24.640Z,49.78
2019-03-19T07:31:50.949Z,48.97
2019-03-19T07:34:30.258Z,49.33
2019-03-19T07:36:56.570Z,49.59
2019-03-19T07:39:22.883Z,49.15
2019-03-19T07:41:49.190Z,49.11
2019-03-19T07:44:15.495Z,47.92
2019-03-19T07:46:41.805Z,46.81
2019-03-19T07:49:08.113Z,46.93
2019-03-19T07:51:34.439Z,46.82
2019-03-19T07:54:00.760Z,45.83
2019-03-19T07:56:27.074Z,45.57
2019-03-19T07:58:53.381Z,45.71
2019-03-19T08:01:19.691Z,45.71
2019-03-19T08:03:46.004Z,45.07
2019-03-19T08:06:12.343Z,45.19
2019-03-19T08:08:38.653Z,44.83
2019-03-19T08:11:04.963Z,43.78
2019-03-19T08:13:31.302Z,44.56
2019-03-19T08:15:57.673Z,44.05
2019-03-19T08:18:24.043Z,43.95
2019-03-19T08:20:50.361Z,43.72
2019-03-19T08:23:16.670Z,43.59
2019-03-19T08:25:42.981Z,43.26
2019-03-19T08:28:09.288Z,42.95
2019-03-19T08:30:35.594Z,43.18
2019-03-19T08:33:01.903Z,42.13
2019-03-19T08:35:29.263Z,41.93
2019-03-19T08:40:45.737Z,41.59
2019-03-19T08:43:12.046Z,41.89
2019-03-19T08:45:38.353Z,41.84
2019-03-19T08:48:04.661Z,41.72
2019-03-19T08:50:30.980Z,41.36
2019-03-19T08:52:57.302Z,41.13
2019-03-19T08:55:23.602Z,40.71
2019-03-19T08:57:49.908Z,41.10
2019-03-19T09:00:16.222Z,40.31
2019-03-19T09:02:42.523Z,40.89
2019-03-19T09:05:08.837Z,40.37
2019-03-19T09:07:35.139Z,40.56
2019-03-19T09:10:01.452Z,40.21
2019-03-19T09:12:27.764Z,40.04
2019-03-19T09:14:54.075Z,39.55
2019-03-19T09:17:20.385Z,39.97
2019-03-19T09:19:46.693Z,38.86
2019-03-19T09:22:13.007Z,39.06
2019-03-19T09:24:39.332Z,38.62
2019-03-19T09:27:07.790Z,39.21
2019-03-19T09:29:34.098Z,38.70
2019-03-19T09:32:00.406Z,38.24
2019-03-19T09:34:26.722Z,38.05
2019-03-19T09:36:57.239Z,38.68
2019-03-19T09:39:19.385Z,40.38
2019-03-19T09:41:45.701Z,40.70
2019-03-19T09:44:12.012Z,40.00
2019-03-19T09:46:38.341Z,39.23
2019-03-19T09:49:04.649Z,38.46
2019-03-19T09:51:30.965Z,37.94
2019-03-19T09:53:57.267Z,37.99
2019-03-19T09:56:23.575Z,38.23
2019-03-19T09:58:49.888Z,38.16
2019-03-19T10:01:16.261Z,36.99
2019-03-19T10:03:51.548Z,36.81
2019-03-19T10:06:17.437Z,36.33
2019-03-19T10:08:43.806Z,37.04
2019-03-19T10:11:10.168Z,37.39
2019-03-19T10:13:47.612Z,37.11
2019-03-19T10:16:13.945Z,37.07
2019-03-19T10:18:40.248Z,36.80
2019-03-19T10:21:06.563Z,36.03
2019-03-19T10:23:32.962Z,36.55
2019-03-19T10:26:00.259Z,37.65
2019-03-19T10:28:26.568Z,37.53
2019-03-19T10:30:54.037Z,37.09
2019-03-19T10:33:21.340Z,36.62
2019-03-19T10:35:47.643Z,35.82
2019-03-19T10:38:17.208Z,35.48
2019-03-19T10:40:43.518Z,35.49
2019-03-19T10:43:09.831Z,34.83
2019-03-19T10:45:36.129Z,34.44
2019-03-19T10:48:02.455Z,34.89
2019-03-19T10:50:28.764Z,35.31
2019-03-19T10:52:55.098Z,34.62
2019-03-19T10:55:21.419Z,35.13
2019-03-19T10:57:47.734Z,34.53
2019-03-19T11:00:14.131Z,34.11
2019-03-19T11:02:41.852Z,34.23
2019-03-19T11:05:08.220Z,33.78
2019-03-19T11:07:34.492Z,33.17
2019-03-19T11:10:00.801Z,33.73
2019-03-19T11:12:27.117Z,34.14
2019-03-19T11:14:53.468Z,34.16
2019-03-19T11:17:19.782Z,33.53
2019-03-19T11:19:46.095Z,33.95
2019-03-19T11:22:12.403Z,32.99
2019-03-19T11:24:38.718Z,33.04
2019-03-19T11:27:05.023Z,33.28
2019-03-19T11:29:31.329Z,33.38
2019-03-19T11:31:57.658Z,33.06
2019-03-19T11:34:23.959Z,32.77
2019-03-19T11:36:57.794Z,33.14
2019-03-19T11:39:16.581Z,32.31
2019-03-19T11:41:42.898Z,32.37
2019-03-19T11:44:09.211Z,31.54
2019-03-19T11:46:35.551Z,31.65
2019-03-19T11:49:01.837Z,31.41
2019-03-19T11:51:28.150Z,31.26
2019-03-19T11:53:54.495Z,31.07
2019-03-19T11:56:20.905Z,32.00
2019-03-19T11:58:47.204Z,31.40
2019-03-19T12:01:13.510Z,31.67
2019-03-19T12:03:39.843Z,31.26
2019-03-19T12:06:06.147Z,31.21
2019-03-19T12:08:32.455Z,30.94
2019-03-19T12:10:58.763Z,31.34
2019-03-19T12:13:25.066Z,30.61
2019-03-19T12:15:51.369Z,30.44
2019-03-19T12:18:17.680Z,29.98
2019-03-19T12:20:44.020Z,30.01
2019-03-19T12:23:10.288Z,30.21
2019-03-19T12:25:36.592Z,30.86
2019-03-19T12:28:02.905Z,30.85
2019-03-19T12:30:29.211Z,31.06
2019-03-19T12:32:55.602Z,30.08
2019-03-19T12:35:21.916Z,30.01
2019-03-19T12:37:48.230Z,29.19
2019-03-19T12:40:14.546Z,29.84
2019-03-19T12:42:40.853Z,29.80
2019-03-19T12:45:07.162Z,29.56
2019-03-19T12:47:33.468Z,30.28
2019-03-19T12:49:59.825Z,30.36
2019-03-19T12:52:26.089Z,30.11
2019-03-19T12:54:52.588Z,30.12
2019-03-19T12:57:18.895Z,29.93
2019-03-19T12:59:45.368Z,30.58
2019-03-19T13:02:11.677Z,30.56
2019-03-19T13:04:37.985Z,30.94
2019-03-19T13:07:04.302Z,31.46
2019-03-19T13:09:30.611Z,31.95
2019-03-19T13:11:56.915Z,32.25
2019-03-19T13:14:23.225Z,33.05
2019-03-19T13:16:49.537Z,33.17
2019-03-19T13:19:15.910Z,33.35
2019-03-19T13:21:42.216Z,34.14
2019-03-19T13:24:08.525Z,34.14
2019-03-19T13:26:34.853Z,34.23
2019-03-19T13:29:01.170Z,34.34
2019-03-19T13:31:27.475Z,34.36
2019-03-19T13:33:53.786Z,34.64
2019-03-19T13:36:20.150Z,34.72
2019-03-19T13:38:46.463Z,34.57
2019-03-19T13:41:12.765Z,34.75
2019-03-19T13:43:39.101Z,34.70
2019-03-19T13:46:05.409Z,34.98
2019-03-19T13:48:31.760Z,35.14
2019-03-19T13:50:58.068Z,34.76
2019-03-19T13:53:24.376Z,34.80
2019-03-19T13:55:50.688Z,34.77
2019-03-19T13:58:16.991Z,34.83
2019-03-19T14:00:43.299Z,34.88
2019-03-19T14:03:09.604Z,34.89
2019-03-19T14:05:35.913Z,35.41
2019-03-19T14:08:02.254Z,35.51
2019-03-19T14:10:28.565Z,35.47
2019-03-19T14:12:54.867Z,35.71
2019-03-19T14:15:21.177Z,35.13
2019-03-19T14:17:47.489Z,35.52
2019-03-19T14:20:13.808Z,35.67
2019-03-19T14:22:40.119Z,35.82
2019-03-19T14:25:06.445Z,36.13
2019-03-19T14:27:32.757Z,36.34
2019-03-19T14:29:59.069Z,35.97
2019-03-19T14:32:25.382Z,35.81
2019-03-19T14:34:51.697Z,36.21
2019-03-19T14:37:18.011Z,35.98
2019-03-19T14:39:44.312Z,35.73
2019-03-19T14:42:10.628Z,35.87
2019-03-19T14:44:36.935Z,35.97
2019-03-19T14:47:03.270Z,35.84
2019-03-19T14:49:29.576Z,35.91
2019-03-19T14:51:55.885Z,35.86
2019-03-19T14:54:22.192Z,35.99
2019-03-19T14:56:48.500Z,35.96
2019-03-19T14:59:14.814Z,36.13
2019-03-19T15:01:41.124Z,36.12
2019-03-19T15:04:07.483Z,35.95
2019-03-19T15:06:33.853Z,35.67
2019-03-19T15:09:00.196Z,35.82
2019-03-19T15:11:26.511Z,35.94
2019-03-19T15:13:55.121Z,35.91
2019-03-19T15:16:19.308Z,36.17
2019-03-19T15:18:45.628Z,36.39
2019-03-19T15:21:11.956Z,36.64
2019-03-19T15:23:38.261Z,36.65
2019-03-19T15:26:04.574Z,36.94
2019-03-19T15:28:30.884Z,37.20
2019-03-19T15:30:57.196Z,38.28
2019-03-19T15:33:23.506Z,38.97
2019-03-19T15:38:35.148Z,41.09
2019-03-19T15:41:01.459Z,41.34
2019-03-19T15:43:27.765Z,41.53
2019-03-19T15:45:54.099Z,41.82
2019-03-19T15:48:20.410Z,42.10
2019-03-19T15:50:46.744Z,42.32
2019-03-19T15:53:13.053Z,42.50
2019-03-19T15:55:39.358Z,42.67
2019-03-19T15:58:05.668Z,42.95
2019-03-19T16:00:31.980Z,43.26
2019-03-19T16:02:58.293Z,43.44
2019-03-19T16:05:24.609Z,43.58
2019-03-19T16:07:51.131Z,43.93
2019-03-19T16:10:17.446Z,44.22
2019-03-19T16:12:43.806Z,44.16
2019-03-19T16:15:10.112Z,44.12
2019-03-19T16:17:36.415Z,44.46
2019-03-19T16:20:02.723Z,44.69
2019-03-19T16:22:29.031Z,45.08
2019-03-19T16:24:55.341Z,45.41
2019-03-19T16:27:21.698Z,45.45
2019-03-19T16:29:47.964Z,45.59
2019-03-19T16:32:14.264Z,45.73
2019-03-19T16:34:40.890Z,45.97
2019-03-19T16:37:07.218Z,46.10
2019-03-19T16:39:35.231Z,46.58
2019-03-19T16:42:00.020Z,46.77
2019-03-19T16:44:26.364Z,46.67
2019-03-19T16:46:52.679Z,46.94
2019-03-19T16:49:18.987Z,47.28
2019-03-19T16:51:45.296Z,47.13
2019-03-19T16:54:11.695Z,47.09
2019-03-19T16:56:38.015Z,47.32
2019-03-19T16:59:04.317Z,47.29
2019-03-19T17:01:30.628Z,47.29
2019-03-19T17:03:57.003Z,47.46
2019-03-19T17:06:23.269Z,47.79
2019-03-19T17:08:49.572Z,47.84
2019-03-19T17:11:15.904Z,48.01
2019-03-19T17:13:42.355Z,48.12
2019-03-19T17:16:08.655Z,48.44
2019-03-19T17:18:34.976Z,48.63
2019-03-19T17:21:01.295Z,48.80
2019-03-19T17:23:27.607Z,48.80
2019-03-19T17:25:53.915Z,49.02
2019-03-19T17:28:22.728Z,49.08
2019-03-19T17:30:46.535Z,49.27
2019-03-19T17:33:12.849Z,49.55
2019-03-19T17:35:39.181Z,49.45
2019-03-19T17:38:05.508Z,49.21
2019-03-19T17:40:41.317Z,49.63
2019-03-19T17:43:00.417Z,49.40
2019-03-19T17:45:26.728Z,49.50
2019-03-19T17:47:53.049Z,49.56
2019-03-19T17:50:19.366Z,49.77
2019-03-19T17:52:45.744Z,49.83
2019-03-19T17:55:11.996Z,49.85
2019-03-19T17:57:38.317Z,50.00
2019-03-19T18:00:04.750Z,49.84
2019-03-19T18:02:31.057Z,49.96
2019-03-19T18:04:57.370Z,50.05
2019-03-19T18:07:23.682Z,49.80
2019-03-19T18:09:49.999Z,50.07
2019-03-19T18:12:16.308Z,50.22
2019-03-19T18:14:42.661Z,50.31
2019-03-19T18:17:08.942Z,50.08
2019-03-19T18:19:35.250Z,50.16
2019-03-19T18:22:01.595Z,50.37
2019-03-19T18:24:27.910Z,50.44
2019-03-19T18:26:54.444Z,50.54
2019-03-19T18:29:20.764Z,50.75
2019-03-19T18:31:47.136Z,50.97
2019-03-19T18:34:13.406Z,50.99
2019-03-19T18:36:39.718Z,50.88
2019-03-19T18:39:06.026Z,50.97
2019-03-19T18:41:32.715Z,51.06
2019-03-19T18:43:59.226Z,51.48
2019-03-19T18:46:25.553Z,52.00
2019-03-19T18:48:51.871Z,51.87
2019-03-19T18:51:18.188Z,51.97
2019-03-19T18:53:48.441Z,51.74
2019-03-19T18:56:11.962Z,52.29
2019-03-19T18:58:38.244Z,51.83
2019-03-19T19:01:04.557Z,52.09
2019-03-19T19:03:30.929Z,52.34
2019-03-19T19:05:57.237Z,52.58
2019-03-19T19:08:23.557Z,52.94
2019-03-19T19:10:49.863Z,52.53
2019-03-19T19:13:16.175Z,54.00
2019-03-19T19:15:42.485Z,52.67
2019-03-19T19:18:08.871Z,53.05
2019-03-19T19:20:35.186Z,53.18
2019-03-19T19:23:02.970Z,53.29
2019-03-19T19:25:27.807Z,53.29
2019-03-19T19:27:54.114Z,53.56
2019-03-19T19:30:20.421Z,53.71
2019-03-19T19:32:46.732Z,55.05
2019-03-19T19:35:13.046Z,54.52
2019-03-19T19:37:39.381Z,52.89
2019-03-19T19:40:05.788Z,52.59
2019-03-19T19:42:32.095Z,52.56
2019-03-19T19:44:58.400Z,52.47
2019-03-19T19:47:24.714Z,51.90
2019-03-19T19:49:51.016Z,52.13
2019-03-19T19:52:17.324Z,51.75
2019-03-19T19:54:43.629Z,52.14
2019-03-19T19:57:11.193Z,51.48
2019-03-19T19:59:36.273Z,51.15
2019-03-19T20:02:02.637Z,51.45
2019-03-19T20:04:28.929Z,51.85
2019-03-19T20:06:55.308Z,51.39
2019-03-19T20:09:21.615Z,51.91
2019-03-19T20:11:47.937Z,52.46
2019-03-19T20:14:14.368Z,52.62
2019-03-19T20:16:40.707Z,53.05
2019-03-19T20:19:07.026Z,53.29
2019-03-19T20:21:33.374Z,53.13
2019-03-19T20:23:59.717Z,53.19
2019-03-19T20:26:26.029Z,53.26
2019-03-19T20:28:52.395Z,53.51
2019-03-19T20:31:18.705Z,53.55
2019-03-19T20:33:45.021Z,54.41
2019-03-19T20:36:11.337Z,54.16
2019-03-19T20:38:37.644Z,54.73
2019-03-19T20:41:03.957Z,54.60
2019-03-19T20:43:30.292Z,54.19
2019-03-19T20:45:56.598Z,54.68
2019-03-19T20:48:22.906Z,54.53
2019-03-19T20:50:49.214Z,55.31
2019-03-19T20:53:15.523Z,54.36
2019-03-19T20:55:41.828Z,55.03
2019-03-19T20:58:08.142Z,54.90
2019-03-19T21:00:34.444Z,54.39
2019-03-19T21:03:00.747Z,54.33
2019-03-19T21:05:27.053Z,54.68
2019-03-19T21:07:53.360Z,54.34
2019-03-19T21:10:19.668Z,54.11
2019-03-19T21:12:45.977Z,54.36
2019-03-19T21:15:12.292Z,54.88
2019-03-19T21:17:38.598Z,55.14
2019-03-19T21:20:04.904Z,55.06
2019-03-19T21:22:31.227Z,54.88
2019-03-19T21:24:57.546Z,55.14
2019-03-19T21:27:24.039Z,55.65
2019-03-19T21:29:52.271Z,55.95
2019-03-19T21:32:16.603Z,55.73
2019-03-19T21:34:42.912Z,56.66
2019-03-19T21:37:09.265Z,56.18
2019-03-19T21:39:35.584Z,56.15
2019-03-19T21:42:01.893Z,56.25
2019-03-19T21:44:28.221Z,56.67
2019-03-19T21:46:54.530Z,56.66
2019-03-19T21:49:20.855Z,56.71
2019-03-19T21:51:47.161Z,56.97
2019-03-19T21:54:13.543Z,57.20
2019-03-19T21:56:39.868Z,57.29
2019-03-19T21:59:06.214Z,57.25
2019-03-19T22:01:32.519Z,57.53
2019-03-19T22:04:03.088Z,57.83
2019-03-19T22:06:25.147Z,58.05
2019-03-19T22:08:51.453Z,58.00
2019-03-19T22:11:17.775Z,58.32
2019-03-19T22:13:44.087Z,58.61
2019-03-19T22:16:10.393Z,58.83
2019-03-19T22:18:36.703Z,59.01
2019-03-19T22:21:03.009Z,59.45
2019-03-19T22:23:29.312Z,59.26
2019-03-19T22:25:55.643Z,59.79
2019-03-19T22:28:21.960Z,59.76
2019-03-19T22:30:48.267Z,59.90
2019-03-19T22:33:14.575Z,60.04
2019-03-19T22:35:40.903Z,60.57
2019-03-19T22:38:07.209Z,59.87
2019-03-19T22:40:33.512Z,60.02
2019-03-19T22:42:59.827Z,60.31
2019-03-19T22:45:26.134Z,60.30
2019-03-19T22:47:52.439Z,60.43
2019-03-19T22:50:18.750Z,60.51
2019-03-19T22:52:45.076Z,60.89
2019-03-19T22:55:11.383Z,60.72
2019-03-19T22:57:37.692Z,60.42
2019-03-19T23:00:04.013Z,61.19
2019-03-19T23:02:30.319Z,61.37
2019-03-19T23:04:56.671Z,61.38
2019-03-19T23:07:22.980Z,61.26
2019-03-19T23:09:49.345Z,61.14
2019-03-19T23:12:15.621Z,61.72
2019-03-19T23:14:41.927Z,61.32
2019-03-19T23:17:08.232Z,61.75
2019-03-19T23:19:34.539Z,61.93
2019-03-19T23:22:00.847Z,61.81
2019-03-19T23:24:27.156Z,62.04
2019-03-19T23:26:53.461Z,62.16
2019-03-19T23:29:19.766Z,62.05
2019-03-19T23:31:46.073Z,62.17
2019-03-19T23:34:12.381Z,62.25
2019-03-19T23:36:38.690Z,62.61
2019-03-19T23:39:04.996Z,62.70
2019-03-19T23:41:31.326Z,62.65
2019-03-19T23:43:57.633Z,62.73
2019-03-19T23:46:23.934Z,62.65
2019-03-19T23:48:50.244Z,62.78
2019-03-19T23:51:16.549Z,63.24
2019-03-19T23:53:42.855Z,62.78
2019-03-19T23:56:09.157Z,62.89
2019-03-19T23:58:35.468Z,63.04
